createdAt,value
2017-05-31T00:00:56.814Z,9.28
2017-05-31T00:03:25.873Z,6.94
2017-05-31T00:05:54.955Z,5.90
2017-05-31T00:08:23.996Z,7.42
2017-05-31T00:10:53.075Z,5.42
2017-05-31T00:13:22.134Z,5.84
2017-05-31T00:15:50.433Z,6.30
2017-05-31T00:18:18.920Z,5.50
2017-05-31T00:20:48.016Z,7.28
2017-05-31T00:23:17.080Z,7.68
2017-05-31T00:25:46.128Z,7.42
2017-05-31T00:28:14.423Z,4.62
2017-05-31T00:30:43.497Z,4.88
2017-05-31T00:33:12.569Z,9.06
2017-05-31T00:35:41.637Z,7.54
2017-05-31T00:38:10.808Z,5.78
2017-05-31T00:40:39.928Z,9.80
2017-05-31T00:43:08.271Z,6.12
2017-05-31T00:45:37.311Z,7.28
2017-05-31T00:48:05.604Z,6.54
2017-05-31T00:50:34.668Z,7.20
2017-05-31T00:53:02.984Z,9.36
2017-05-31T00:55:31.271Z,8.48
2017-05-31T00:58:00.333Z,7.64
2017-05-31T01:00:29.388Z,6.58
2017-05-31T01:02:58.457Z,8.76
2017-05-31T01:05:26.765Z,6.26
2017-05-31T01:07:55.827Z,10.48
2017-05-31T01:10:24.877Z,7.56
2017-05-31T01:12:53.936Z,13.18
2017-05-31T01:15:22.267Z,7.76
2017-05-31T01:17:51.569Z,9.86
2017-05-31T01:20:20.653Z,7.62
2017-05-31T01:22:49.121Z,6.98
2017-05-31T01:25:18.247Z,9.04
2017-05-31T01:27:47.290Z,7.10
2017-05-31T01:30:16.335Z,10.94
2017-05-31T01:32:44.668Z,7.74
2017-05-31T01:35:13.737Z,8.22
2017-05-31T01:37:42.785Z,7.54
2017-05-31T01:40:11.888Z,9.34
2017-05-31T01:42:40.955Z,11.68
2017-05-31T01:45:09.271Z,6.96
2017-05-31T01:47:38.336Z,8.90
2017-05-31T01:50:07.394Z,8.66
2017-05-31T01:52:36.430Z,12.22
2017-05-31T01:55:05.760Z,9.38
2017-05-31T01:57:34.833Z,7.44
2017-05-31T02:00:03.934Z,11.56
2017-05-31T02:02:32.239Z,7.58
2017-05-31T02:05:01.284Z,9.52
2017-05-31T02:07:29.577Z,11.16
2017-05-31T02:09:58.620Z,10.06
2017-05-31T02:12:27.675Z,11.34
2017-05-31T02:14:56.751Z,9.48
2017-05-31T02:17:25.029Z,8.86
2017-05-31T02:19:54.148Z,9.64
2017-05-31T02:22:22.467Z,11.56
2017-05-31T02:24:51.145Z,10.74
2017-05-31T02:27:20.198Z,10.82
2017-05-31T02:29:49.278Z,9.30
2017-05-31T02:32:18.365Z,13.32
2017-05-31T02:34:46.684Z,12.68
2017-05-31T02:37:16.037Z,11.66
2017-05-31T02:39:45.085Z,10.54
2017-05-31T02:42:13.402Z,11.54
2017-05-31T02:44:41.693Z,13.28
2017-05-31T02:47:10.763Z,13.16
2017-05-31T02:49:39.819Z,9.74
2017-05-31T02:52:08.112Z,9.02
2017-05-31T02:54:36.428Z,13.18
2017-05-31T02:57:05.488Z,9.72
2017-05-31T02:59:34.604Z,10.80
2017-05-31T03:02:03.681Z,9.74
2017-05-31T03:04:32.750Z,13.18
2017-05-31T03:07:01.816Z,12.44
2017-05-31T03:09:30.863Z,10.70
2017-05-31T03:11:59.937Z,12.20
2017-05-31T03:14:28.277Z,10.56
2017-05-31T03:16:57.356Z,14.64
2017-05-31T03:19:26.402Z,11.16
2017-05-31T03:21:54.708Z,13.04
2017-05-31T03:24:23.780Z,12.82
2017-05-31T03:26:52.080Z,12.62
2017-05-31T03:29:21.163Z,10.88
2017-05-31T03:31:49.452Z,10.40
2017-05-31T03:34:17.825Z,18.64
2017-05-31T03:36:46.900Z,13.00
2017-05-31T03:39:16.016Z,14.58
2017-05-31T03:41:44.309Z,10.48
2017-05-31T03:44:12.637Z,13.10
2017-05-31T03:46:40.933Z,12.56
2017-05-31T03:49:10.294Z,11.96
2017-05-31T03:51:39.356Z,14.50
2017-05-31T03:54:08.455Z,15.22
2017-05-31T03:56:36.775Z,11.30
2017-05-31T03:59:05.948Z,13.24
2017-05-31T04:01:34.256Z,12.02
2017-05-31T04:04:03.360Z,12.38
2017-05-31T04:06:31.660Z,13.04
2017-05-31T04:09:00.759Z,15.18
2017-05-31T04:11:29.037Z,11.86
2017-05-31T04:13:58.084Z,12.14
2017-05-31T04:16:26.381Z,10.96
2017-05-31T04:18:55.452Z,9.82
2017-05-31T04:21:24.526Z,10.16
2017-05-31T04:23:53.587Z,14.64
2017-05-31T04:26:22.640Z,12.18
2017-05-31T04:28:51.756Z,10.54
2017-05-31T04:31:20.805Z,9.68
2017-05-31T04:33:49.225Z,12.68
2017-05-31T04:36:18.544Z,14.82
2017-05-31T04:38:48.024Z,12.44
2017-05-31T04:41:17.089Z,13.24
2017-05-31T04:43:45.371Z,13.78
2017-05-31T04:46:13.681Z,13.14
2017-05-31T04:48:42.792Z,18.52
2017-05-31T04:51:11.837Z,18.64
2017-05-31T04:53:40.120Z,16.30
2017-05-31T04:56:09.224Z,10.88
2017-05-31T04:58:38.300Z,14.94
2017-05-31T05:01:06.600Z,10.26
2017-05-31T05:03:34.911Z,14.64
2017-05-31T05:06:03.229Z,12.22
2017-05-31T05:08:32.414Z,12.86
2017-05-31T05:11:01.464Z,11.32
2017-05-31T05:13:30.517Z,12.38
2017-05-31T05:15:58.822Z,13.70
2017-05-31T05:18:27.867Z,13.28
2017-05-31T05:20:56.993Z,13.84
2017-05-31T05:23:26.049Z,17.52
2017-05-31T05:25:57.052Z,11.48
2017-05-31T05:28:26.108Z,14.50
2017-05-31T05:30:54.446Z,14.22
2017-05-31T05:33:23.516Z,11.72
2017-05-31T05:35:52.576Z,11.76
2017-05-31T05:38:21.656Z,10.80
2017-05-31T05:40:50.452Z,12.46
2017-05-31T05:43:19.489Z,13.68
2017-05-31T05:45:48.574Z,14.24
2017-05-31T05:48:17.629Z,10.70
2017-05-31T05:50:46.679Z,14.42
2017-05-31T05:53:15.012Z,13.08
2017-05-31T05:55:44.072Z,13.14
2017-05-31T05:58:12.430Z,14.48
2017-05-31T06:00:41.534Z,15.06
2017-05-31T06:03:09.855Z,13.28
2017-05-31T06:05:38.900Z,14.24
2017-05-31T06:08:07.364Z,10.46
2017-05-31T06:10:36.420Z,14.16
2017-05-31T06:13:04.713Z,13.50
2017-05-31T06:15:34.393Z,13.80
2017-05-31T06:18:03.485Z,12.16
2017-05-31T06:20:32.564Z,14.12
2017-05-31T06:23:01.630Z,13.92
2017-05-31T06:25:30.684Z,11.98
2017-05-31T06:27:59.769Z,12.22
2017-05-31T06:30:28.817Z,16.20
2017-05-31T06:32:57.128Z,13.06
2017-05-31T06:35:26.211Z,13.26
2017-05-31T06:37:54.496Z,13.02
2017-05-31T06:40:23.581Z,16.26
2017-05-31T06:42:52.656Z,18.78
2017-05-31T06:45:21.969Z,16.00
2017-05-31T06:47:50.272Z,13.30
2017-05-31T06:50:19.330Z,17.10
2017-05-31T06:52:48.388Z,14.54
2017-05-31T06:55:16.701Z,16.30
2017-05-31T06:57:45.757Z,13.44
2017-05-31T07:00:14.817Z,13.26
2017-05-31T07:02:43.132Z,13.06
2017-05-31T07:05:12.208Z,14.42
2017-05-31T07:07:41.281Z,15.14
2017-05-31T07:10:10.379Z,14.98
2017-05-31T07:12:39.431Z,16.52
2017-05-31T07:15:07.777Z,16.66
2017-05-31T07:17:36.847Z,13.84
2017-05-31T07:20:05.903Z,11.62
2017-05-31T07:22:34.227Z,14.38
2017-05-31T07:25:02.768Z,13.32
2017-05-31T07:27:31.056Z,14.88
2017-05-31T07:30:00.121Z,15.00
2017-05-31T07:32:29.179Z,13.06
2017-05-31T07:34:58.222Z,13.84
2017-05-31T07:37:26.526Z,16.22
2017-05-31T07:39:55.605Z,12.40
2017-05-31T07:42:23.915Z,14.60
2017-05-31T07:44:52.975Z,21.88
2017-05-31T07:47:21.266Z,16.40
2017-05-31T07:49:50.442Z,12.70
2017-05-31T07:52:19.547Z,18.02
2017-05-31T07:54:48.025Z,15.32
2017-05-31T07:57:17.093Z,15.34
2017-05-31T07:59:46.170Z,14.36
2017-05-31T08:02:15.249Z,14.00
2017-05-31T08:04:44.296Z,13.36
2017-05-31T08:07:13.395Z,15.54
2017-05-31T08:09:42.440Z,11.64
2017-05-31T08:12:10.734Z,14.42
2017-05-31T08:14:40.003Z,11.78
2017-05-31T08:17:09.065Z,10.50
2017-05-31T08:19:38.153Z,14.74
2017-05-31T08:22:07.253Z,13.58
2017-05-31T08:24:35.549Z,15.74
2017-05-31T08:27:03.837Z,13.02
2017-05-31T08:29:33.045Z,14.66
2017-05-31T08:32:01.316Z,13.44
2017-05-31T08:34:29.605Z,13.04
2017-05-31T08:36:58.678Z,11.16
2017-05-31T08:39:27.729Z,11.46
2017-05-31T08:41:56.876Z,14.50
2017-05-31T08:44:25.951Z,14.06
2017-05-31T08:46:54.275Z,13.62
2017-05-31T08:49:23.326Z,8.54
2017-05-31T08:51:52.197Z,12.08
2017-05-31T08:54:21.260Z,9.34
2017-05-31T08:56:50.142Z,7.66
2017-05-31T08:59:19.252Z,11.30
2017-05-31T09:01:47.675Z,8.52
2017-05-31T09:04:15.976Z,10.26
2017-05-31T09:06:45.052Z,9.04
2017-05-31T09:09:14.131Z,10.10
2017-05-31T09:11:43.457Z,8.54
2017-05-31T09:14:11.757Z,8.56
2017-05-31T09:16:40.796Z,7.88
2017-05-31T09:19:09.853Z,10.06
2017-05-31T09:21:38.937Z,7.04
2017-05-31T09:24:07.983Z,7.06
2017-05-31T09:26:37.065Z,6.78
2017-05-31T09:29:06.100Z,7.04
2017-05-31T09:31:35.164Z,9.88
2017-05-31T09:34:03.472Z,7.14
2017-05-31T09:36:31.773Z,6.14
2017-05-31T09:39:00.820Z,8.40
2017-05-31T09:41:29.917Z,7.38
2017-05-31T09:43:58.967Z,6.26
2017-05-31T09:46:28.029Z,8.56
2017-05-31T09:48:57.129Z,7.12
2017-05-31T09:51:25.443Z,4.80
2017-05-31T09:53:54.492Z,6.38
2017-05-31T09:56:23.564Z,4.64
2017-05-31T09:58:52.691Z,7.40
2017-05-31T10:01:21.013Z,6.92
2017-05-31T10:03:50.281Z,5.64
2017-05-31T10:06:18.601Z,10.18
2017-05-31T10:08:47.669Z,10.64
2017-05-31T10:11:16.001Z,7.30
2017-05-31T10:13:44.308Z,7.14
2017-05-31T10:16:13.376Z,12.04
2017-05-31T10:18:42.445Z,7.18
2017-05-31T10:21:10.865Z,11.42
2017-05-31T10:23:39.880Z,6.52
2017-05-31T10:26:09.021Z,6.24
2017-05-31T10:28:38.059Z,6.92
2017-05-31T10:31:07.160Z,7.60
2017-05-31T10:33:35.455Z,8.72
2017-05-31T10:36:03.773Z,7.78
2017-05-31T10:38:32.815Z,8.90
2017-05-31T10:41:01.890Z,8.84
2017-05-31T10:43:30.192Z,9.76
2017-05-31T10:45:58.460Z,8.02
2017-05-31T10:48:27.629Z,8.90
2017-05-31T10:50:56.712Z,9.98
2017-05-31T10:53:25.020Z,10.62
2017-05-31T10:55:54.093Z,10.38
2017-05-31T10:58:23.745Z,8.40
2017-05-31T11:00:52.795Z,9.40
2017-05-31T11:03:21.124Z,10.36
2017-05-31T11:05:50.216Z,9.82
2017-05-31T11:08:19.290Z,8.98
2017-05-31T11:10:48.372Z,8.98
2017-05-31T11:13:16.693Z,11.02
2017-05-31T11:15:45.037Z,10.40
2017-05-31T11:18:14.133Z,10.88
2017-05-31T11:20:43.209Z,10.48
2017-05-31T11:23:11.545Z,9.74
2017-05-31T11:25:40.621Z,11.36
2017-05-31T11:28:08.916Z,11.76
2017-05-31T11:30:37.994Z,10.56
2017-05-31T11:33:07.071Z,11.04
2017-05-31T11:35:36.124Z,10.08
2017-05-31T11:38:05.189Z,12.32
2017-05-31T11:40:34.245Z,10.16
2017-05-31T11:43:02.531Z,11.06
2017-05-31T11:45:31.119Z,11.54
2017-05-31T11:47:59.404Z,10.82
2017-05-31T11:50:28.460Z,13.52
2017-05-31T11:52:57.615Z,13.20
2017-05-31T11:55:26.679Z,12.20
2017-05-31T11:57:55.743Z,11.26
2017-05-31T12:00:24.892Z,12.54
2017-05-31T12:02:53.936Z,11.52
2017-05-31T12:05:22.236Z,13.40
2017-05-31T12:07:51.464Z,11.00
2017-05-31T12:10:20.519Z,9.38
2017-05-31T12:12:51.007Z,9.12
2017-05-31T12:15:19.305Z,8.30
2017-05-31T12:17:48.681Z,10.28
2017-05-31T12:20:17.777Z,8.06
2017-05-31T12:22:46.083Z,9.32
2017-05-31T12:25:14.375Z,8.46
2017-05-31T12:27:43.457Z,11.28
2017-05-31T12:30:12.516Z,9.34
2017-05-31T12:32:41.560Z,10.96
2017-05-31T12:35:10.927Z,11.04
2017-05-31T12:37:39.966Z,9.30
2017-05-31T12:40:09.823Z,7.88
2017-05-31T12:42:38.123Z,9.30
2017-05-31T12:45:06.427Z,7.70
2017-05-31T12:47:35.459Z,7.34
2017-05-31T12:50:04.516Z,7.00
2017-05-31T12:52:32.843Z,6.22
2017-05-31T12:55:01.925Z,5.40
2017-05-31T12:57:30.961Z,5.48
2017-05-31T13:00:00.044Z,4.10
2017-05-31T13:02:28.360Z,5.64
2017-05-31T13:04:56.644Z,6.46
2017-05-31T13:07:25.709Z,6.48
2017-05-31T13:09:54.824Z,6.14
2017-05-31T13:12:23.873Z,7.48
2017-05-31T13:14:52.925Z,5.90
2017-05-31T13:17:21.233Z,6.94
2017-05-31T13:19:50.478Z,5.74
2017-05-31T13:22:18.760Z,6.34
2017-05-31T13:24:47.085Z,5.94
2017-05-31T13:27:15.397Z,6.72
2017-05-31T13:29:44.447Z,9.22
2017-05-31T13:32:12.728Z,6.36
2017-05-31T13:34:41.059Z,4.68
2017-05-31T13:37:09.359Z,5.64
2017-05-31T13:39:38.436Z,6.58
2017-05-31T13:42:07.505Z,7.12
2017-05-31T13:44:36.585Z,5.36
2017-05-31T13:47:05.670Z,7.16
2017-05-31T13:49:34.781Z,6.26
2017-05-31T13:52:03.136Z,6.54
2017-05-31T13:54:32.361Z,4.92
2017-05-31T13:57:00.646Z,6.24
2017-05-31T13:59:29.718Z,5.52
2017-05-31T14:01:58.933Z,5.42
2017-05-31T14:04:27.296Z,5.84
2017-05-31T14:06:56.454Z,6.10
2017-05-31T14:09:25.611Z,5.56
2017-05-31T14:11:54.684Z,6.58
2017-05-31T14:14:23.013Z,5.46
2017-05-31T14:16:52.083Z,6.82
2017-05-31T14:19:21.141Z,6.18
2017-05-31T14:21:49.451Z,5.00
2017-05-31T14:24:18.496Z,5.58
2017-05-31T14:26:46.763Z,7.58
2017-05-31T14:29:16.112Z,6.06
2017-05-31T14:31:44.405Z,5.12
2017-05-31T14:34:13.467Z,9.72
2017-05-31T14:36:42.749Z,6.02
2017-05-31T14:39:11.825Z,5.14
2017-05-31T14:41:40.870Z,5.40
2017-05-31T14:44:09.189Z,4.66
2017-05-31T14:46:38.256Z,4.86
2017-05-31T14:49:07.324Z,4.68
2017-05-31T14:51:36.403Z,5.66
2017-05-31T14:54:05.723Z,4.50
2017-05-31T14:56:34.793Z,6.08
2017-05-31T14:59:03.896Z,5.52
2017-05-31T15:01:32.948Z,8.80
2017-05-31T15:04:01.257Z,7.72
2017-05-31T15:06:30.343Z,6.48
2017-05-31T15:08:59.413Z,6.70
2017-05-31T15:11:28.474Z,6.22
2017-05-31T15:13:56.768Z,6.74
2017-05-31T15:16:25.831Z,5.70
2017-05-31T15:18:54.899Z,5.08
2017-05-31T15:21:23.200Z,7.20
2017-05-31T15:23:51.538Z,6.30
2017-05-31T15:26:20.628Z,6.48
2017-05-31T15:28:49.768Z,6.90
2017-05-31T15:31:18.837Z,7.48
2017-05-31T15:33:48.026Z,6.44
2017-05-31T15:36:16.312Z,7.56
2017-05-31T15:38:45.394Z,6.22
2017-05-31T15:41:14.445Z,6.60
2017-05-31T15:43:43.644Z,7.38
2017-05-31T15:46:12.000Z,7.54
2017-05-31T15:48:41.075Z,9.10
2017-05-31T15:51:09.383Z,8.40
2017-05-31T15:53:38.532Z,8.28
2017-05-31T15:56:07.694Z,8.28
2017-05-31T15:58:36.980Z,8.66
2017-05-31T16:01:06.044Z,6.70
2017-05-31T16:03:35.112Z,6.56
2017-05-31T16:06:04.196Z,8.46
2017-05-31T16:08:33.266Z,7.28
2017-05-31T16:11:03.180Z,7.78
2017-05-31T16:13:32.585Z,8.28
2017-05-31T16:16:01.668Z,7.70
2017-05-31T16:18:30.712Z,6.94
2017-05-31T16:20:59.070Z,7.14
2017-05-31T16:23:28.139Z,12.54
2017-05-31T16:25:57.219Z,7.56
2017-05-31T16:28:26.269Z,7.56
2017-05-31T16:30:54.617Z,6.90
2017-05-31T16:33:22.911Z,8.28
2017-05-31T16:35:52.411Z,7.60
2017-05-31T16:38:20.705Z,5.90
2017-05-31T16:40:50.428Z,6.78
2017-05-31T16:43:18.724Z,6.44
2017-05-31T16:45:47.789Z,7.74
2017-05-31T16:48:16.113Z,6.24
2017-05-31T16:50:45.163Z,6.88
2017-05-31T16:53:13.485Z,6.44
2017-05-31T16:55:42.536Z,8.52
2017-05-31T16:58:11.585Z,6.12
2017-05-31T17:00:40.653Z,7.54
2017-05-31T17:03:08.974Z,6.32
2017-05-31T17:05:37.273Z,6.18
2017-05-31T17:08:05.623Z,4.94
2017-05-31T17:10:34.672Z,5.52
2017-05-31T17:13:03.735Z,6.86
2017-05-31T17:15:32.061Z,5.04
2017-05-31T17:18:01.135Z,4.84
2017-05-31T17:20:30.825Z,5.68
2017-05-31T17:22:59.900Z,5.12
2017-05-31T17:25:28.984Z,5.42
2017-05-31T17:27:58.082Z,5.44
2017-05-31T17:30:27.178Z,6.74
2017-05-31T17:32:56.246Z,4.24
2017-05-31T17:35:25.316Z,5.30
2017-05-31T17:37:54.526Z,4.90
2017-05-31T17:40:23.596Z,4.44
2017-05-31T17:42:52.716Z,4.86
2017-05-31T17:45:21.778Z,4.28
2017-05-31T17:47:51.931Z,6.66
2017-05-31T17:50:21.073Z,6.92
2017-05-31T17:52:50.177Z,4.32
2017-05-31T17:55:19.253Z,5.56
2017-05-31T17:57:48.312Z,4.94
2017-05-31T18:00:17.454Z,5.94
2017-05-31T18:02:45.807Z,4.64
2017-05-31T18:05:14.140Z,4.06
2017-05-31T18:07:43.212Z,4.78
2017-05-31T18:10:12.580Z,4.78
2017-05-31T18:12:41.646Z,4.56
2017-05-31T18:15:10.703Z,4.80
2017-05-31T18:17:39.768Z,6.14
2017-05-31T18:20:09.158Z,4.16
2017-05-31T18:22:38.204Z,5.08
2017-05-31T18:25:07.282Z,3.76
2017-05-31T18:27:36.360Z,3.14
2017-05-31T18:30:05.426Z,3.54
2017-05-31T18:32:34.492Z,5.38
2017-05-31T18:35:04.252Z,3.84
2017-05-31T18:37:33.304Z,4.02
2017-05-31T18:40:02.353Z,3.62
2017-05-31T18:42:32.434Z,3.98
2017-05-31T18:45:00.907Z,4.92
2017-05-31T18:47:29.969Z,3.24
2017-05-31T18:49:59.278Z,8.06
2017-05-31T18:52:28.335Z,3.14
2017-05-31T18:54:58.472Z,4.04
2017-05-31T18:57:27.539Z,4.68
2017-05-31T18:59:56.606Z,3.20
2017-05-31T19:02:24.918Z,3.92
2017-05-31T19:04:54.064Z,4.52
2017-05-31T19:07:22.379Z,3.90
2017-05-31T19:09:51.702Z,4.48
2017-05-31T19:12:21.435Z,3.74
2017-05-31T19:14:49.711Z,4.34
2017-05-31T19:17:18.892Z,4.66
2017-05-31T19:19:48.184Z,3.26
2017-05-31T19:22:16.473Z,4.42
2017-05-31T19:24:44.838Z,3.50
2017-05-31T19:27:13.192Z,3.82
2017-05-31T19:29:42.261Z,4.02
2017-05-31T19:32:11.340Z,3.14
2017-05-31T19:34:39.654Z,2.96
2017-05-31T19:37:08.817Z,3.18
2017-05-31T19:39:37.875Z,4.94
2017-05-31T19:42:06.976Z,3.02
2017-05-31T19:44:36.048Z,3.62
2017-05-31T19:47:05.119Z,3.06
2017-05-31T19:49:34.184Z,4.72
2017-05-31T19:52:03.278Z,2.90
2017-05-31T19:54:32.338Z,3.66
2017-05-31T19:57:01.414Z,3.20
2017-05-31T19:59:30.497Z,3.72
2017-05-31T20:02:00.638Z,4.28
2017-05-31T20:04:29.735Z,12.84
2017-05-31T20:06:59.561Z,3.22
2017-05-31T20:09:28.651Z,3.54
2017-05-31T20:11:58.552Z,3.00
2017-05-31T20:14:27.907Z,3.66
2017-05-31T20:16:56.956Z,2.82
2017-05-31T20:19:26.036Z,3.14
2017-05-31T20:21:55.114Z,3.24
2017-05-31T20:24:24.173Z,4.34
2017-05-31T20:26:53.224Z,3.08
2017-05-31T20:29:22.438Z,2.72
2017-05-31T20:31:51.628Z,3.08
2017-05-31T20:34:20.687Z,4.92
2017-05-31T20:36:49.788Z,2.36
2017-05-31T20:39:18.844Z,3.32
2017-05-31T20:41:47.891Z,3.34
2017-05-31T20:44:16.966Z,2.32
2017-05-31T20:46:46.037Z,3.02
2017-05-31T20:49:15.099Z,4.32
2017-05-31T20:51:44.173Z,5.12
2017-05-31T20:54:13.250Z,6.32
2017-05-31T20:56:42.294Z,5.02
2017-05-31T20:59:11.401Z,4.76
2017-05-31T21:01:40.457Z,2.12
2017-05-31T21:04:09.558Z,3.02
2017-05-31T21:06:38.644Z,4.64
2017-05-31T21:09:08.070Z,3.22
2017-05-31T21:11:37.143Z,2.38
2017-05-31T21:14:06.285Z,3.54
2017-05-31T21:16:35.356Z,6.20
2017-05-31T21:19:05.302Z,5.08
2017-05-31T21:21:34.395Z,3.32
2017-05-31T21:24:03.467Z,4.70
2017-05-31T21:26:32.536Z,7.78
2017-05-31T21:29:01.609Z,5.24
2017-05-31T21:31:30.684Z,5.80
2017-05-31T21:33:59.751Z,4.74
2017-05-31T21:36:28.808Z,4.70
2017-05-31T21:38:57.884Z,6.14
2017-05-31T21:41:26.994Z,4.58
2017-05-31T21:43:56.055Z,4.68
2017-05-31T21:46:25.109Z,4.36
2017-05-31T21:48:54.180Z,4.94
2017-05-31T21:51:23.238Z,4.12
2017-05-31T21:53:52.379Z,5.38
2017-05-31T21:56:22.178Z,5.74
2017-05-31T21:58:51.623Z,3.36
2017-05-31T22:01:20.779Z,3.96
2017-05-31T22:03:49.849Z,3.86
2017-05-31T22:06:18.939Z,7.24
2017-05-31T22:08:47.992Z,3.54
2017-05-31T22:11:17.094Z,6.26
2017-05-31T22:13:46.185Z,7.26
2017-05-31T22:16:15.506Z,7.82
2017-05-31T22:18:44.591Z,6.34
2017-05-31T22:21:13.645Z,8.80
2017-05-31T22:23:42.717Z,4.90
2017-05-31T22:26:11.805Z,5.92
2017-05-31T22:28:40.853Z,7.36
2017-05-31T22:31:09.926Z,6.80
2017-05-31T22:33:38.988Z,6.78
2017-05-31T22:36:08.057Z,4.70
2017-05-31T22:38:37.124Z,4.74
2017-05-31T22:41:06.314Z,5.74
2017-05-31T22:43:35.755Z,5.62
2017-05-31T22:46:04.817Z,6.46
2017-05-31T22:48:33.865Z,5.70
2017-05-31T22:51:02.981Z,6.16
2017-05-31T22:53:32.068Z,5.64
2017-05-31T22:56:01.137Z,8.04
2017-05-31T22:58:30.188Z,8.26
2017-05-31T23:00:59.276Z,8.62
2017-05-31T23:03:28.344Z,8.12
2017-05-31T23:05:57.456Z,6.42
2017-05-31T23:08:26.518Z,4.60
2017-05-31T23:10:55.583Z,6.60
2017-05-31T23:13:24.653Z,5.38
2017-05-31T23:15:53.748Z,5.58
2017-05-31T23:18:22.894Z,7.66
2017-05-31T23:20:51.971Z,6.24
2017-05-31T23:23:21.019Z,7.96
2017-05-31T23:25:50.473Z,13.32
2017-05-31T23:28:19.815Z,10.78
2017-05-31T23:30:49.272Z,6.50
2017-05-31T23:33:18.332Z,5.90
2017-05-31T23:35:47.388Z,5.62
2017-05-31T23:38:16.454Z,12.46
2017-05-31T23:40:45.509Z,5.82
2017-05-31T23:43:14.613Z,11.18
2017-05-31T23:45:43.657Z,4.88
2017-05-31T23:48:12.758Z,4.34
2017-05-31T23:50:41.817Z,5.60
2017-05-31T23:53:10.877Z,8.52
2017-05-31T23:55:39.952Z,9.52
2017-05-31T23:58:09.039Z,6.22
